Time;durP1;ratioP1;P1;durP2;ratioP2;P2;SDS_P1;SDS_P2;PMS_P1;PMS_P2;Temp;Humidity;BMP_temperature;BMP_pressure;BME280_temperature;BME280_humidity;BME280_pressure;Samples;Min_cycle;Max_cycle;Signal;HPM_P1;HPM_P2
2021/01/23 00:00:12;;;;;;;;;;;27.60;87.80;;;;;;4986059;28;20443;-81
2021/01/23 00:02:38;;;;;;;;;;;27.60;88.90;;;;;;4985294;28;19918;-81
2021/01/23 00:05:05;;;;;;;;;;;27.70;88.50;;;;;;4986110;28;20377;-85
2021/01/23 00:07:32;;;;;;;;;;;27.70;88.60;;;;;;4992522;28;19913;-81
2021/01/23 00:09:59;;;;;;;;;;;27.90;88.50;;;;;;4989464;28;19917;-84
2021/01/23 00:12:25;;;;;;;;;;;28.00;88.70;;;;;;4993482;28;19921;-85
2021/01/23 00:14:52;;;;;;;;;;;28.00;87.70;;;;;;4991198;28;19918;-83
2021/01/23 00:17:19;;;;;;;;;;;28.10;87.80;;;;;;4992080;28;20390;-83
2021/01/23 00:19:45;;;;;;;;;;;28.30;87.80;;;;;;4992848;28;19925;-83
2021/01/23 00:22:12;;;;;;;;;;;28.50;87.20;;;;;;4992310;28;19957;-83
2021/01/23 00:24:39;;;;;;;;;;;28.60;86.40;;;;;;4987902;28;19933;-78
2021/01/23 00:27:11;;;;;;;;;;;28.60;86.70;;;;;;4997165;28;19956;-83
2021/01/23 00:29:38;;;;;;;;;;;28.40;86.90;;;;;;5003003;28;19929;-84
2021/01/23 00:32:05;;;;;;;;;;;28.50;88.00;;;;;;4993380;28;19933;-81
2021/01/23 00:34:35;;;;;;;;;;;28.50;87.70;;;;;;4987739;28;19989;-82
2021/01/23 00:37:01;;;;;;;;;;;28.60;88.10;;;;;;4990280;28;19932;-80
2021/01/23 00:39:28;;;;;;;;;;;28.70;88.00;;;;;;4984303;28;19929;-81
2021/01/23 00:41:55;;;;;;;;;;;28.70;87.90;;;;;;4966180;28;19918;-83
2021/01/23 00:44:21;;;;;;;;;;;28.60;89.10;;;;;;4986386;28;20374;-80
2021/01/23 00:46:48;;;;;;;;;;;28.70;89.00;;;;;;4987973;28;19914;-82
2021/01/23 00:49:15;;;;;;;;;;;29.00;88.40;;;;;;4985188;28;20268;-81
2021/01/23 00:51:41;;;;;;;;;;;29.20;87.30;;;;;;4988744;28;19984;-83
2021/01/23 00:54:09;;;;;;;;;;;29.20;86.30;;;;;;4991570;28;20034;-82
2021/01/23 00:56:38;;;;;;;;;;;29.20;86.30;;;;;;4991803;28;20004;-82
2021/01/23 00:59:05;;;;;;;;;;;29.30;85.70;;;;;;4995344;28;20008;-80
2021/01/23 01:01:31;;;;;;;;;;;29.40;85.70;;;;;;5011372;28;19926;-79
2021/01/23 01:03:58;;;;;;;;;;;29.80;84.00;;;;;;4994125;28;20068;-82
2021/01/23 01:06:25;;;;;;;;;;;30.00;83.40;;;;;;4991269;28;20356;-81
2021/01/23 01:08:51;;;;;;;;;;;30.20;82.40;;;;;;4974681;28;19953;-85
2021/01/23 01:11:18;;;;;;;;;;;30.70;80.50;;;;;;4992673;28;19918;-84
2021/01/23 01:13:45;;;;;;;;;;;31.00;80.40;;;;;;4991117;28;20387;-82
2021/01/23 01:16:11;;;;;;;;;;;31.20;80.40;;;;;;4988024;28;19910;-83
2021/01/23 01:18:38;;;;;;;;;;;31.60;79.40;;;;;;4990464;28;20001;-84
2021/01/23 01:21:05;;;;;;;;;;;31.70;78.30;;;;;;4993824;28;20312;-81
2021/01/23 01:23:32;;;;;;;;;;;31.60;79.00;;;;;;4989715;28;19965;-82
2021/01/23 01:25:58;;;;;;;;;;;31.80;78.50;;;;;;4990470;28;19918;-82
2021/01/23 01:28:25;;;;;;;;;;;31.60;77.60;;;;;;4979168;28;19929;-81
2021/01/23 01:30:52;;;;;;;;;;;31.60;78.80;;;;;;4991287;28;19910;-81
2021/01/23 01:33:19;;;;;;;;;;;31.40;79.40;;;;;;5005831;28;19921;-82
2021/01/23 01:35:46;;;;;;;;;;;32.00;76.00;;;;;;4995095;28;19909;-83
2021/01/23 01:38:13;;;;;;;;;;;32.10;75.70;;;;;;4991773;28;19917;-82
2021/01/23 01:40:39;;;;;;;;;;;32.00;76.00;;;;;;4991875;28;19910;-84
2021/01/23 01:43:06;;;;;;;;;;;31.70;77.20;;;;;;4986705;28;19910;-85
2021/01/23 01:45:33;;;;;;;;;;;31.80;76.90;;;;;;4984015;28;19970;-83
2021/01/23 01:48:02;;;;;;;;;;;31.70;77.30;;;;;;4986628;28;19996;-81
2021/01/23 01:50:29;;;;;;;;;;;31.80;77.00;;;;;;4984984;28;19918;-83
2021/01/23 01:52:56;;;;;;;;;;;31.60;77.40;;;;;;4993824;28;19922;-81
2021/01/23 01:55:30;;;;;;;;;;;31.70;77.30;;;;;;4995139;28;19917;-80
2021/01/23 01:57:57;;;;;;;;;;;31.50;77.60;;;;;;4993015;28;19941;-83
2021/01/23 02:00:24;;;;;;;;;;;31.50;78.10;;;;;;4995259;28;20001;-82
2021/01/23 02:03:09;;;;;;;;;;;31.30;78.70;;;;;;4994632;28;19914;-81
2021/01/23 02:05:48;;;;;;;;;;;30.90;78.30;;;;;;4994979;28;19941;-79
2021/01/23 02:08:17;;;;;;;;;;;30.40;80.80;;;;;;4998375;28;19914;-86
2021/01/23 02:10:53;;;;;;;;;;;30.20;82.00;;;;;;4995937;28;19910;-81
2021/01/23 02:13:32;;;;;;;;;;;29.90;81.50;;;;;;4998044;28;19925;-82
2021/01/23 02:16:05;;;;;;;;;;;29.80;82.80;;;;;;4978347;28;19918;-82
2021/01/23 02:18:42;;;;;;;;;;;29.70;82.80;;;;;;4993971;28;19921;-82
2021/01/23 02:21:20;;;;;;;;;;;29.70;82.60;;;;;;4995325;28;19960;-83
2021/01/23 02:23:47;;;;;;;;;;;29.70;83.40;;;;;;4996292;28;19918;-84
2021/01/23 02:26:14;;;;;;;;;;;29.60;84.40;;;;;;5014092;28;19921;-81
2021/01/23 02:28:50;;;;;;;;;;;29.60;84.20;;;;;;5006923;28;19917;-82
2021/01/23 02:31:20;;;;;;;;;;;29.50;84.40;;;;;;4994009;28;19934;-81
2021/01/23 02:33:49;;;;;;;;;;;29.30;84.70;;;;;;4977208;28;19922;-81
2021/01/23 02:36:17;;;;;;;;;;;29.20;86.30;;;;;;4993457;28;19928;-83
2021/01/23 02:38:47;;;;;;;;;;;29.10;86.50;;;;;;4990881;28;19914;-80
2021/01/23 02:41:15;;;;;;;;;;;28.90;87.80;;;;;;4996132;28;20613;-82
2021/01/23 02:43:43;;;;;;;;;;;28.90;88.30;;;;;;4995437;28;19914;-82
2021/01/23 02:46:10;;;;;;;;;;;28.90;88.20;;;;;;4994874;28;19913;-82
2021/01/23 02:48:40;;;;;;;;;;;28.80;89.20;;;;;;4994888;28;19937;-82
2021/01/23 02:51:09;;;;;;;;;;;29.00;89.10;;;;;;4994472;28;19914;-81
2021/01/23 02:53:37;;;;;;;;;;;28.80;90.00;;;;;;4994894;28;19922;-82
2021/01/23 02:56:08;;;;;;;;;;;28.90;90.30;;;;;;4994482;28;19913;-80
2021/01/23 02:58:36;;;;;;;;;;;28.90;90.00;;;;;;5000208;28;19910;-82
2021/01/23 03:01:04;;;;;;;;;;;29.10;90.00;;;;;;4997170;28;19910;-83
2021/01/23 03:03:32;;;;;;;;;;;29.00;89.50;;;;;;4996681;28;19913;-84
2021/01/23 03:06:05;;;;;;;;;;;29.00;90.00;;;;;;4995668;28;19922;-82
2021/01/23 03:08:33;;;;;;;;;;;29.00;90.10;;;;;;4996163;28;19910;-81
2021/01/23 03:10:59;;;;;;;;;;;28.90;90.30;;;;;;4994271;28;19910;-85
2021/01/23 03:13:26;;;;;;;;;;;28.90;90.10;;;;;;4995119;28;19925;-82
2021/01/23 03:15:53;;;;;;;;;;;28.70;90.30;;;;;;4995700;28;19914;-83
2021/01/23 03:18:20;;;;;;;;;;;28.60;90.60;;;;;;4996553;28;19913;-83
2021/01/23 03:20:47;;;;;;;;;;;28.60;90.30;;;;;;4995745;28;19972;-84
2021/01/23 03:23:13;;;;;;;;;;;28.60;90.50;;;;;;4971221;28;20002;-84
2021/01/23 03:25:40;;;;;;;;;;;28.50;90.80;;;;;;4988766;28;19949;-82
2021/01/23 03:28:07;;;;;;;;;;;28.40;90.80;;;;;;4993498;28;20369;-83
2021/01/23 03:30:34;;;;;;;;;;;28.50;91.60;;;;;;4993503;28;19909;-80
2021/01/23 03:33:00;;;;;;;;;;;28.40;90.70;;;;;;4995246;28;19968;-82
2021/01/23 03:35:27;;;;;;;;;;;28.20;91.20;;;;;;4995548;28;19976;-79
2021/01/23 03:37:54;;;;;;;;;;;28.10;91.10;;;;;;4995706;28;19910;-79
2021/01/23 03:40:21;;;;;;;;;;;28.10;91.70;;;;;;4995667;28;20335;-79
2021/01/23 03:42:47;;;;;;;;;;;28.20;91.50;;;;;;4995340;28;19910;-80
2021/01/23 03:45:14;;;;;;;;;;;28.30;91.20;;;;;;4997835;28;19910;-80
2021/01/23 03:47:41;;;;;;;;;;;28.20;91.50;;;;;;4995670;28;19914;-78
2021/01/23 03:50:09;;;;;;;;;;;28.20;91.70;;;;;;4995227;28;19909;-78
2021/01/23 03:52:36;;;;;;;;;;;28.40;91.10;;;;;;4994589;28;20325;-80
2021/01/23 03:55:04;;;;;;;;;;;28.40;91.00;;;;;;4992391;28;19910;-84
2021/01/23 03:57:30;;;;;;;;;;;28.40;91.10;;;;;;4980214;28;19924;-84
2021/01/23 04:00:01;;;;;;;;;;;28.30;91.40;;;;;;4984711;28;20262;-77
2021/01/23 04:02:28;;;;;;;;;;;28.20;91.30;;;;;;4988526;28;19913;-82
2021/01/23 04:04:54;;;;;;;;;;;28.20;91.60;;;;;;4994600;28;19940;-81
2021/01/23 04:07:21;;;;;;;;;;;28.20;91.10;;;;;;4994810;28;19913;-82
2021/01/23 04:09:48;;;;;;;;;;;28.10;91.20;;;;;;4995103;28;19914;-81
2021/01/23 04:12:14;;;;;;;;;;;28.20;91.40;;;;;;4993927;28;19917;-80
2021/01/23 04:14:42;;;;;;;;;;;28.20;91.70;;;;;;5002031;28;19921;-82
2021/01/23 04:17:09;;;;;;;;;;;28.20;91.80;;;;;;4994284;28;20280;-82
2021/01/23 04:19:36;;;;;;;;;;;28.20;91.90;;;;;;4994887;28;19926;-82
2021/01/23 04:22:02;;;;;;;;;;;28.30;91.60;;;;;;4994901;28;20380;-83
2021/01/23 04:24:29;;;;;;;;;;;28.30;91.60;;;;;;4994831;28;20320;-83
2021/01/23 04:26:55;;;;;;;;;;;28.20;91.90;;;;;;4990487;28;20000;-82
2021/01/23 04:29:22;;;;;;;;;;;28.20;91.80;;;;;;4994432;28;19960;-83
2021/01/23 04:31:49;;;;;;;;;;;28.20;91.50;;;;;;4994154;28;19917;-82
2021/01/23 04:34:15;;;;;;;;;;;28.30;91.40;;;;;;4994319;28;20431;-80
2021/01/23 04:36:42;;;;;;;;;;;28.40;91.10;;;;;;5004323;28;20166;-81
2021/01/23 04:39:09;;;;;;;;;;;28.20;91.00;;;;;;5015327;28;19913;-81
2021/01/23 04:41:35;;;;;;;;;;;28.10;91.30;;;;;;4993803;28;19913;-82
2021/01/23 04:44:03;;;;;;;;;;;28.20;91.50;;;;;;4993588;28;19993;-82
2021/01/23 04:46:30;;;;;;;;;;;28.20;91.10;;;;;;4993638;28;20281;-82
2021/01/23 04:48:57;;;;;;;;;;;28.10;91.70;;;;;;4994537;28;19910;-82
2021/01/23 04:51:25;;;;;;;;;;;28.10;91.70;;;;;;4993002;28;19910;-82
2021/01/23 04:53:52;;;;;;;;;;;28.20;91.70;;;;;;4988522;28;20319;-83
2021/01/23 04:56:18;;;;;;;;;;;28.20;91.80;;;;;;4994456;28;20004;-82
2021/01/23 04:58:46;;;;;;;;;;;28.30;91.80;;;;;;4993725;28;19914;-84
2021/01/23 05:01:14;;;;;;;;;;;28.10;92.00;;;;;;4993800;28;19914;-82
2021/01/23 05:03:54;;;;;;;;;;;28.10;92.00;;;;;;4976531;28;19929;-82
2021/01/23 05:06:20;;;;;;;;;;;28.10;92.30;;;;;;5005953;28;19918;-81
2021/01/23 05:08:47;;;;;;;;;;;28.10;92.30;;;;;;5004246;28;19917;-82
2021/01/23 05:11:13;;;;;;;;;;;28.00;92.50;;;;;;4993460;28;19964;-82
2021/01/23 05:13:43;;;;;;;;;;;27.80;93.00;;;;;;4995058;28;20058;-81
2021/01/23 05:16:29;;;;;;;;;;;27.80;93.00;;;;;;4992247;28;19914;-82
2021/01/23 05:18:57;;;;;;;;;;;27.80;93.00;;;;;;4984217;28;19980;-83
2021/01/23 05:21:24;;;;;;;;;;;27.80;93.40;;;;;;4994242;28;19921;-81
2021/01/23 05:24:01;;;;;;;;;;;27.70;93.50;;;;;;4993227;28;20009;-82
2021/01/23 05:26:28;;;;;;;;;;;27.60;93.60;;;;;;4994550;28;20272;-80
2021/01/23 05:29:04;;;;;;;;;;;27.60;93.50;;;;;;4992723;28;19916;-80
2021/01/23 05:31:31;;;;;;;;;;;27.50;93.50;;;;;;4993977;28;19914;-80
2021/01/23 05:33:57;;;;;;;;;;;27.50;93.20;;;;;;4980739;28;19918;-78
2021/01/23 05:36:24;;;;;;;;;;;27.50;93.60;;;;;;4994789;28;19913;-77
2021/01/23 05:38:51;;;;;;;;;;;27.40;93.70;;;;;;4997147;28;19916;-78
2021/01/23 05:41:17;;;;;;;;;;;27.30;93.90;;;;;;5005325;28;19969;-78
2021/01/23 05:43:45;;;;;;;;;;;27.50;94.20;;;;;;5009175;28;19910;-78
2021/01/23 05:46:16;;;;;;;;;;;27.50;94.10;;;;;;4996885;28;19914;-78
2021/01/23 05:48:47;;;;;;;;;;;27.60;93.90;;;;;;4996572;28;20017;-85
2021/01/23 05:51:14;;;;;;;;;;;27.70;93.80;;;;;;4995894;28;19914;-78
2021/01/23 05:53:41;;;;;;;;;;;27.70;93.00;;;;;;4996556;28;19921;-79
2021/01/23 05:56:08;;;;;;;;;;;27.70;93.10;;;;;;4994238;28;19929;-79
2021/01/23 05:58:38;;;;;;;;;;;27.60;93.10;;;;;;4985449;28;19910;-78
2021/01/23 06:01:16;;;;;;;;;;;27.60;93.00;;;;;;4994319;28;19914;-78
2021/01/23 06:03:45;;;;;;;;;;;27.60;93.00;;;;;;4978338;28;20055;-76
2021/01/23 06:06:11;;;;;;;;;;;27.40;92.60;;;;;;4995941;28;19925;-78
2021/01/23 06:08:58;;;;;;;;;;;27.40;92.80;;;;;;4995867;28;19910;-75
2021/01/23 06:11:25;;;;;;;;;;;27.40;93.10;;;;;;4994938;28;19918;-77
2021/01/23 06:13:52;;;;;;;;;;;27.60;92.40;;;;;;4994874;28;19940;-77
2021/01/23 06:16:34;;;;;;;;;;;27.60;91.90;;;;;;4993825;28;19913;-76
2021/01/23 06:19:21;;;;;;;;;;;27.50;92.10;;;;;;4975670;28;20012;-75
2021/01/23 06:21:48;;;;;;;;;;;27.60;91.80;;;;;;4988113;28;19913;-80
2021/01/23 06:24:15;;;;;;;;;;;27.50;91.60;;;;;;4993996;28;19937;-77
2021/01/23 06:26:54;;;;;;;;;;;27.40;92.00;;;;;;4994451;28;19957;-77
2021/01/23 06:29:33;;;;;;;;;;;27.20;92.00;;;;;;4994636;28;19918;-77
2021/01/23 06:32:15;;;;;;;;;;;27.10;92.20;;;;;;4995261;28;19914;-77
2021/01/23 06:34:51;;;;;;;;;;;27.00;92.30;;;;;;4995883;28;19937;-77
2021/01/23 06:37:25;;;;;;;;;;;27.10;92.70;;;;;;4996085;28;19956;-77
2021/01/23 06:40:08;;;;;;;;;;;27.10;93.00;;;;;;4993918;28;19999;-76
2021/01/23 06:42:36;;;;;;;;;;;27.10;92.70;;;;;;4993555;28;19936;-76
2021/01/23 06:45:16;;;;;;;;;;;27.00;92.90;;;;;;4992796;28;19909;-76
2021/01/23 06:47:45;;;;;;;;;;;27.00;92.80;;;;;;4992953;28;20000;-76
2021/01/23 06:50:12;;;;;;;;;;;26.90;92.80;;;;;;4993598;28;19909;-75
2021/01/23 06:52:49;;;;;;;;;;;26.90;93.10;;;;;;4993029;28;20381;-76
2021/01/23 06:55:16;;;;;;;;;;;26.90;93.00;;;;;;4993548;28;19960;-77
2021/01/23 06:57:46;;;;;;;;;;;26.90;93.30;;;;;;4993431;28;20319;-75
2021/01/23 07:00:14;;;;;;;;;;;27.00;93.40;;;;;;4993152;28;19933;-76
2021/01/23 07:02:41;;;;;;;;;;;27.10;93.70;;;;;;4993224;28;20001;-75
2021/01/23 07:05:08;;;;;;;;;;;27.20;93.80;;;;;;4993009;28;19965;-76
2021/01/23 07:07:39;;;;;;;;;;;27.30;93.70;;;;;;4993443;28;20008;-76
2021/01/23 07:10:15;;;;;;;;;;;27.20;93.30;;;;;;4992777;28;19921;-77
2021/01/23 07:12:43;;;;;;;;;;;27.20;92.90;;;;;;4993050;28;19922;-76
2021/01/23 07:15:14;;;;;;;;;;;27.10;93.00;;;;;;4993125;28;20388;-77
2021/01/23 07:17:42;;;;;;;;;;;27.10;93.20;;;;;;4993243;28;20364;-75
2021/01/23 07:20:09;;;;;;;;;;;27.00;93.20;;;;;;4992206;28;19917;-76
2021/01/23 07:22:38;;;;;;;;;;;27.00;93.10;;;;;;4992577;28;20347;-77
2021/01/23 07:25:05;;;;;;;;;;;27.00;93.10;;;;;;4992410;28;20045;-77
2021/01/23 07:27:32;;;;;;;;;;;27.00;93.10;;;;;;4992226;28;19985;-76
2021/01/23 07:29:59;;;;;;;;;;;27.00;92.80;;;;;;4992350;28;19921;-76
2021/01/23 07:32:35;;;;;;;;;;;27.00;92.80;;;;;;4992649;28;19957;-77
2021/01/23 07:35:02;;;;;;;;;;;27.00;92.70;;;;;;4984473;28;19917;-77
2021/01/23 07:37:51;;;;;;;;;;;26.90;92.60;;;;;;4990232;28;20106;-77
2021/01/23 07:40:24;;;;;;;;;;;26.90;92.20;;;;;;4992030;28;19924;-76
2021/01/23 07:42:51;;;;;;;;;;;26.80;92.00;;;;;;4988410;28;20357;-77
2021/01/23 07:45:18;;;;;;;;;;;26.80;91.40;;;;;;4991139;28;20399;-77
2021/01/23 07:47:55;;;;;;;;;;;26.70;91.60;;;;;;4991358;28;19925;-77
2021/01/23 07:50:22;;;;;;;;;;;26.70;91.50;;;;;;4991668;28;19924;-76
2021/01/23 07:52:48;;;;;;;;;;;26.70;91.20;;;;;;4992306;28;19930;-76
2021/01/23 07:55:15;;;;;;;;;;;26.70;91.00;;;;;;4991315;28;20363;-75
2021/01/23 07:57:42;;;;;;;;;;;26.70;90.80;;;;;;4990256;28;19918;-77
2021/01/23 08:00:20;;;;;;;;;;;26.70;90.40;;;;;;4991371;28;19925;-76
2021/01/23 08:02:53;;;;;;;;;;;26.80;90.10;;;;;;4992182;28;20424;-76
2021/01/23 08:05:21;;;;;;;;;;;26.80;89.70;;;;;;4991414;28;19920;-76
2021/01/23 08:07:48;;;;;;;;;;;26.80;89.30;;;;;;4994319;28;19916;-76
2021/01/23 08:10:16;;;;;;;;;;;26.80;89.10;;;;;;4992004;28;19914;-76
2021/01/23 08:13:03;;;;;;;;;;;26.80;88.40;;;;;;5008784;28;19958;-76
2021/01/23 08:15:30;;;;;;;;;;;26.80;88.50;;;;;;5014139;28;19953;-76
2021/01/23 08:17:57;;;;;;;;;;;26.80;88.40;;;;;;4977096;28;20116;-76
2021/01/23 08:20:32;;;;;;;;;;;26.80;88.80;;;;;;4990767;28;20331;-77
2021/01/23 08:23:11;;;;;;;;;;;26.90;88.80;;;;;;4994474;28;19917;-76
2021/01/23 08:25:39;;;;;;;;;;;26.80;88.90;;;;;;4994686;28;20352;-78
2021/01/23 08:28:06;;;;;;;;;;;26.80;88.70;;;;;;4998005;28;19909;-76
2021/01/23 08:30:33;;;;;;;;;;;26.80;89.20;;;;;;5004727;28;19914;-79
2021/01/23 08:33:06;;;;;;;;;;;26.80;89.50;;;;;;4987393;28;19943;-76
2021/01/23 08:35:34;;;;;;;;;;;26.70;89.80;;;;;;4991094;28;20012;-75
2021/01/23 08:38:01;;;;;;;;;;;26.70;89.80;;;;;;4990737;28;20377;-76
2021/01/23 08:40:28;;;;;;;;;;;26.80;89.90;;;;;;4991079;28;19926;-75
2021/01/23 08:42:57;;;;;;;;;;;26.80;89.80;;;;;;4990119;28;20375;-75
2021/01/23 08:45:25;;;;;;;;;;;26.70;89.70;;;;;;4990186;28;19914;-74
2021/01/23 08:47:52;;;;;;;;;;;26.70;89.70;;;;;;4990307;28;19968;-74
2021/01/23 08:50:19;;;;;;;;;;;26.70;89.80;;;;;;4991286;28;19914;-75
2021/01/23 08:52:45;;;;;;;;;;;26.70;89.90;;;;;;4990583;28;19925;-75
2021/01/23 08:55:12;;;;;;;;;;;26.70;89.80;;;;;;4991415;28;19922;-75
2021/01/23 08:57:39;;;;;;;;;;;26.70;89.60;;;;;;4990520;28;19925;-75
2021/01/23 09:00:06;;;;;;;;;;;26.70;89.40;;;;;;4989315;28;20009;-76
2021/01/23 09:02:33;;;;;;;;;;;26.70;89.60;;;;;;4990191;28;19957;-76
2021/01/23 09:05:00;;;;;;;;;;;26.70;89.60;;;;;;4990145;28;20321;-75
2021/01/23 09:07:26;;;;;;;;;;;26.60;89.80;;;;;;4989790;28;19960;-74
2021/01/23 09:09:53;;;;;;;;;;;26.60;89.80;;;;;;4990812;28;20324;-76
2021/01/23 09:12:20;;;;;;;;;;;26.60;89.90;;;;;;4990346;28;19969;-76
2021/01/23 09:14:47;;;;;;;;;;;26.50;90.00;;;;;;4990332;28;19917;-74
2021/01/23 09:17:13;;;;;;;;;;;26.50;90.00;;;;;;4990172;28;20004;-74
2021/01/23 09:19:40;;;;;;;;;;;26.50;90.00;;;;;;4990527;28;20353;-74
2021/01/23 09:22:07;;;;;;;;;;;26.50;89.80;;;;;;4990316;28;19910;-75
2021/01/23 09:24:33;;;;;;;;;;;26.50;90.00;;;;;;4990706;28;19948;-75
2021/01/23 09:27:00;;;;;;;;;;;26.50;89.80;;;;;;4990374;28;19910;-76
2021/01/23 09:29:27;;;;;;;;;;;26.50;90.10;;;;;;4990266;28;19918;-76
2021/01/23 09:31:53;;;;;;;;;;;26.50;90.20;;;;;;4990672;28;19921;-76
2021/01/23 09:34:20;;;;;;;;;;;26.40;90.20;;;;;;4972629;28;19922;-75
2021/01/23 09:36:47;;;;;;;;;;;26.40;90.60;;;;;;4990046;28;19925;-76
2021/01/23 09:39:13;;;;;;;;;;;26.40;90.40;;;;;;4990330;28;19917;-76
2021/01/23 09:41:40;;;;;;;;;;;26.40;90.70;;;;;;4990353;28;19925;-75
2021/01/23 09:44:07;;;;;;;;;;;26.30;91.00;;;;;;4989863;28;19921;-76
2021/01/23 09:46:33;;;;;;;;;;;26.30;91.40;;;;;;4990287;28;20394;-75
2021/01/23 09:49:00;;;;;;;;;;;26.20;91.50;;;;;;4990392;28;19914;-76
2021/01/23 09:51:27;;;;;;;;;;;26.10;91.70;;;;;;4990393;28;19960;-74
2021/01/23 09:53:53;;;;;;;;;;;26.10;91.80;;;;;;4989892;28;19925;-75
2021/01/23 09:56:21;;;;;;;;;;;26.00;91.90;;;;;;4989582;28;20369;-77
2021/01/23 09:58:48;;;;;;;;;;;26.00;91.90;;;;;;4989995;28;19915;-77
2021/01/23 10:01:17;;;;;;;;;;;26.00;91.80;;;;;;4990291;28;19942;-75
2021/01/23 10:03:44;;;;;;;;;;;25.90;91.90;;;;;;4983938;28;19914;-76
2021/01/23 10:06:11;;;;;;;;;;;26.00;91.80;;;;;;4982640;28;19921;-76
2021/01/23 10:08:37;;;;;;;;;;;25.90;91.70;;;;;;4982129;28;19915;-74
2021/01/23 10:11:04;;;;;;;;;;;25.90;91.70;;;;;;4984545;28;20355;-76
2021/01/23 10:13:31;;;;;;;;;;;25.90;91.80;;;;;;4989654;28;19929;-75
2021/01/23 10:15:57;;;;;;;;;;;25.90;92.10;;;;;;4983792;28;20266;-75
2021/01/23 10:18:24;;;;;;;;;;;25.90;92.00;;;;;;4981568;28;20391;-74
2021/01/23 10:20:51;;;;;;;;;;;25.90;91.80;;;;;;4992108;28;19918;-74
2021/01/23 10:23:20;;;;;;;;;;;25.80;91.90;;;;;;4984301;28;20001;-76
2021/01/23 10:25:47;;;;;;;;;;;25.80;92.00;;;;;;4983564;28;19914;-75
2021/01/23 10:28:13;;;;;;;;;;;25.80;92.20;;;;;;4981491;28;19968;-76
2021/01/23 10:30:40;;;;;;;;;;;25.80;92.30;;;;;;4981255;28;19961;-76
2021/01/23 10:33:07;;;;;;;;;;;25.80;92.20;;;;;;4984839;28;19922;-75
2021/01/23 10:35:33;;;;;;;;;;;25.80;92.20;;;;;;4993308;28;19914;-75
2021/01/23 10:38:00;;;;;;;;;;;25.70;92.20;;;;;;4992775;28;19944;-76
2021/01/23 10:40:27;;;;;;;;;;;25.70;92.40;;;;;;4986841;28;19979;-76
2021/01/23 10:42:53;;;;;;;;;;;25.70;92.30;;;;;;4983339;28;19921;-76
2021/01/23 10:45:20;;;;;;;;;;;25.70;92.10;;;;;;4985930;28;19918;-76
2021/01/23 10:47:47;;;;;;;;;;;25.70;92.00;;;;;;4992393;28;20372;-77
2021/01/23 10:50:14;;;;;;;;;;;25.60;92.20;;;;;;4992117;28;19918;-77
2021/01/23 10:52:40;;;;;;;;;;;25.70;92.70;;;;;;4992431;28;19926;-74
2021/01/23 10:55:07;;;;;;;;;;;25.70;92.80;;;;;;4992482;28;19918;-76
2021/01/23 10:57:34;;;;;;;;;;;25.70;92.80;;;;;;4992411;28;19969;-76
2021/01/23 11:00:01;;;;;;;;;;;25.70;92.90;;;;;;4992417;28;19933;-75
2021/01/23 11:02:27;;;;;;;;;;;25.70;92.90;;;;;;4992554;28;19916;-76
2021/01/23 11:04:54;;;;;;;;;;;25.70;92.80;;;;;;4991376;28;19921;-76
2021/01/23 11:07:21;;;;;;;;;;;25.60;92.90;;;;;;4982384;28;19910;-75
2021/01/23 11:09:47;;;;;;;;;;;25.60;92.90;;;;;;4988421;28;19914;-75
2021/01/23 11:12:14;;;;;;;;;;;25.60;93.10;;;;;;4987653;28;19918;-74
2021/01/23 11:14:41;;;;;;;;;;;25.60;93.10;;;;;;5006490;28;19960;-74
2021/01/23 11:17:07;;;;;;;;;;;25.60;93.20;;;;;;4991855;28;19918;-74
2021/01/23 11:19:34;;;;;;;;;;;25.60;93.30;;;;;;4991896;28;19914;-76
2021/01/23 11:22:01;;;;;;;;;;;25.50;93.40;;;;;;4991726;28;20288;-76
2021/01/23 11:24:29;;;;;;;;;;;25.50;93.40;;;;;;4992270;28;19914;-75
2021/01/23 11:26:56;;;;;;;;;;;25.50;93.30;;;;;;4992712;28;20012;-74
2021/01/23 11:29:22;;;;;;;;;;;25.50;93.30;;;;;;4987160;28;19930;-75
2021/01/23 11:31:49;;;;;;;;;;;25.50;93.00;;;;;;4972084;28;19921;-75
2021/01/23 11:34:16;;;;;;;;;;;25.60;92.90;;;;;;4972784;28;19973;-76
2021/01/23 11:36:42;;;;;;;;;;;25.50;93.30;;;;;;4991498;28;19957;-75
2021/01/23 11:39:09;;;;;;;;;;;25.50;94.90;;;;;;4991818;28;19918;-75
2021/01/23 11:41:36;;;;;;;;;;;25.40;95.50;;;;;;4991202;28;20333;-74
2021/01/23 11:44:06;;;;;;;;;;;25.30;95.90;;;;;;4991375;28;19932;-75
2021/01/23 11:46:32;;;;;;;;;;;25.20;96.30;;;;;;4991786;28;19917;-77
2021/01/23 11:48:59;;;;;;;;;;;25.20;96.70;;;;;;4991827;28;19937;-74
2021/01/23 11:51:25;;;;;;;;;;;25.10;96.80;;;;;;4992008;28;19910;-75
2021/01/23 11:53:53;;;;;;;;;;;25.00;97.00;;;;;;4986800;28;20313;-74
2021/01/23 11:56:19;;;;;;;;;;;25.00;97.20;;;;;;4987193;28;19918;-75
2021/01/23 11:58:56;;;;;;;;;;;25.00;97.30;;;;;;4992024;28;19918;-76
2021/01/23 12:01:23;;;;;;;;;;;25.00;97.40;;;;;;4992076;28;19961;-74
2021/01/23 12:03:50;;;;;;;;;;;24.90;97.50;;;;;;4973654;28;19978;-74
2021/01/23 12:06:17;;;;;;;;;;;24.90;97.50;;;;;;4991211;28;20008;-75
2021/01/23 12:08:43;;;;;;;;;;;25.00;97.50;;;;;;4991679;28;19945;-76
2021/01/23 12:11:10;;;;;;;;;;;24.90;97.50;;;;;;4991128;28;19913;-75
2021/01/23 12:13:36;;;;;;;;;;;25.00;97.50;;;;;;4990896;28;19980;-73
2021/01/23 12:16:04;;;;;;;;;;;24.90;97.70;;;;;;4990555;28;20389;-75
2021/01/23 12:18:31;;;;;;;;;;;24.90;97.40;;;;;;4991091;28;19918;-74
2021/01/23 12:20:57;;;;;;;;;;;24.90;97.40;;;;;;4990635;28;19913;-76
2021/01/23 12:23:25;;;;;;;;;;;24.90;97.20;;;;;;4991118;28;20024;-75
2021/01/23 12:25:52;;;;;;;;;;;24.90;97.10;;;;;;4990374;28;19936;-76
2021/01/23 12:28:19;;;;;;;;;;;24.90;97.10;;;;;;4990940;28;20052;-74
2021/01/23 12:30:45;;;;;;;;;;;24.90;97.10;;;;;;4990920;28;20277;-74
2021/01/23 12:33:12;;;;;;;;;;;24.90;97.40;;;;;;4989769;28;20380;-75
2021/01/23 12:35:39;;;;;;;;;;;24.80;97.50;;;;;;4991134;28;20011;-76
2021/01/23 12:38:05;;;;;;;;;;;24.80;97.80;;;;;;4990718;28;19918;-76
2021/01/23 12:40:32;;;;;;;;;;;24.70;97.90;;;;;;4991096;28;19945;-76
2021/01/23 12:42:59;;;;;;;;;;;24.70;98.10;;;;;;4990369;28;19918;-75
2021/01/23 12:45:25;;;;;;;;;;;24.70;98.20;;;;;;4988959;28;20040;-76
2021/01/23 12:47:52;;;;;;;;;;;24.70;98.30;;;;;;4983890;28;19914;-76
2021/01/23 12:50:19;;;;;;;;;;;24.70;98.50;;;;;;4981091;28;19933;-77
2021/01/23 12:52:46;;;;;;;;;;;24.70;98.60;;;;;;4966991;28;20020;-75
2021/01/23 12:55:13;;;;;;;;;;;24.70;98.30;;;;;;4982387;28;19918;-75
2021/01/23 12:57:40;;;;;;;;;;;24.70;98.10;;;;;;4981778;28;19925;-75
2021/01/23 13:00:07;;;;;;;;;;;24.70;98.40;;;;;;4981116;28;19918;-75
2021/01/23 13:02:34;;;;;;;;;;;24.70;98.60;;;;;;4984380;28;19914;-75
2021/01/23 13:05:01;;;;;;;;;;;24.60;98.60;;;;;;4989346;28;19930;-75
2021/01/23 13:07:28;;;;;;;;;;;24.60;98.70;;;;;;4990526;28;19917;-75
2021/01/23 13:09:55;;;;;;;;;;;24.60;98.90;;;;;;4990642;28;19920;-76
2021/01/23 13:12:22;;;;;;;;;;;24.50;99.00;;;;;;4972709;28;19986;-77
2021/01/23 13:14:48;;;;;;;;;;;24.50;99.10;;;;;;4983229;28;19914;-75
2021/01/23 13:17:15;;;;;;;;;;;24.50;99.10;;;;;;4989490;28;20005;-75
2021/01/23 13:19:43;;;;;;;;;;;24.50;99.00;;;;;;4990573;28;19910;-76
2021/01/23 13:22:10;;;;;;;;;;;24.50;99.10;;;;;;4990045;28;19920;-78
2021/01/23 13:24:38;;;;;;;;;;;24.50;99.10;;;;;;4978173;28;19980;-77
2021/01/23 13:27:05;;;;;;;;;;;24.50;99.10;;;;;;4990782;28;20286;-77
2021/01/23 13:29:32;;;;;;;;;;;24.50;99.10;;;;;;4991472;28;20348;-77
2021/01/23 13:31:59;;;;;;;;;;;24.50;99.20;;;;;;4990962;28;19957;-77
2021/01/23 13:34:26;;;;;;;;;;;24.50;99.20;;;;;;4988924;28;20376;-77
2021/01/23 13:36:53;;;;;;;;;;;24.40;99.30;;;;;;4983996;28;19992;-77
2021/01/23 13:39:23;;;;;;;;;;;24.40;99.40;;;;;;4988346;28;19914;-76
2021/01/23 13:41:50;;;;;;;;;;;24.40;99.50;;;;;;4976784;28;20288;-77
2021/01/23 13:44:16;;;;;;;;;;;24.40;99.40;;;;;;4989406;28;20589;-77
2021/01/23 13:46:44;;;;;;;;;;;24.50;99.40;;;;;;4984421;28;19918;-77
2021/01/23 13:49:11;;;;;;;;;;;24.50;99.00;;;;;;4977313;28;19921;-75
2021/01/23 13:51:38;;;;;;;;;;;24.50;99.30;;;;;;4987748;28;19957;-77
2021/01/23 13:54:05;;;;;;;;;;;24.50;99.30;;;;;;4992098;28;19926;-78
2021/01/23 13:56:34;;;;;;;;;;;24.40;99.50;;;;;;4994990;28;19956;-75
2021/01/23 13:59:01;;;;;;;;;;;24.40;99.50;;;;;;4994597;28;19914;-77
2021/01/23 14:01:28;;;;;;;;;;;24.40;99.50;;;;;;4994745;28;19953;-77
2021/01/23 14:03:54;;;;;;;;;;;24.40;99.60;;;;;;4994325;28;19910;-77
2021/01/23 14:06:21;;;;;;;;;;;24.40;99.70;;;;;;4994781;28;19909;-76
2021/01/23 14:08:47;;;;;;;;;;;24.30;99.70;;;;;;4992695;28;19945;-77
2021/01/23 14:11:14;;;;;;;;;;;24.20;99.80;;;;;;4995928;28;19944;-78
2021/01/23 14:13:41;;;;;;;;;;;24.20;99.80;;;;;;4994297;28;19918;-77
2021/01/23 14:16:07;;;;;;;;;;;24.20;99.90;;;;;;4994218;28;19936;-77
2021/01/23 14:18:34;;;;;;;;;;;24.10;99.90;;;;;;4992505;28;20364;-78
2021/01/23 14:21:01;;;;;;;;;;;24.10;99.90;;;;;;4993986;28;20505;-77